Time;durP1;ratioP1;P1;durP2;ratioP2;P2;SDS_P1;SDS_P2;PMS_P1;PMS_P2;Temp;Humidity;BMP_temperature;BMP_pressure;BME280_temperature;BME280_humidity;BME280_pressure;Samples;Min_cycle;Max_cycle;Signal;HPM_P1;HPM_P2
2022/01/04 05:47:19;;;;;;;3.33;1.80;;;;;;;5.72;79.58;98728.78;4986969;28;105801;-68
2022/01/04 05:49:45;;;;;;;1.42;1.02;;;;;;;5.76;80.04;98722.13;4985530;28;105697;-69
2022/01/04 05:52:10;;;;;;;3.80;1.90;;;;;;;5.80;80.11;98706.75;4985739;28;106173;-71
2022/01/04 05:54:35;;;;;;;4.03;2.17;;;;;;;5.84;80.22;98700.94;4985607;28;106352;-67
2022/01/04 05:57:01;;;;;;;2.55;1.70;;;;;;;5.90;80.65;98691.47;4985403;28;106127;-68
2022/01/04 05:59:26;;;;;;;2.33;1.58;;;;;;;5.96;80.25;98685.50;4985743;28;106217;-69
2022/01/04 06:01:51;;;;;;;4.22;2.13;;;;;;;6.03;80.72;98693.56;4985034;28;106274;-70
2022/01/04 06:04:17;;;;;;;3.08;1.70;;;;;;;6.07;80.68;98687.75;4984426;28;105946;-69
2022/01/04 06:06:42;;;;;;;3.65;2.08;;;;;;;6.09;80.41;98685.72;4983931;28;106502;-71
2022/01/04 06:09:16;;;;;;;4.10;2.22;;;;;;;6.13;80.48;98680.91;4985624;28;106191;-71
2022/01/04 06:16:51;;;;;;;4.13;2.30;;;;;;;6.25;80.57;98673.38;4985206;28;106292;-67
2022/01/04 06:19:16;;;;;;;5.50;2.33;;;;;;;6.26;80.20;98673.19;4984887;28;106553;-71
2022/01/04 06:21:42;;;;;;;4.63;2.92;;;;;;;6.29;80.48;98660.59;4984856;28;106144;-66
2022/01/04 06:24:07;;;;;;;8.75;3.58;;;;;;;6.31;80.32;98659.41;4984853;28;106275;-70
2022/01/04 06:26:33;;;;;;;6.13;3.05;;;;;;;6.31;79.88;98662.06;4984511;28;106065;-69
2022/01/04 06:28:58;;;;;;;4.88;3.10;;;;;;;6.32;80.39;98662.91;4985756;28;106005;-69
2022/01/04 06:31:26;;;;;;;4.65;3.20;;;;;;;6.31;80.32;98662.06;4984809;28;106148;-69
2022/01/04 06:33:51;;;;;;;6.25;3.45;;;;;;;6.31;80.08;98661.25;4984584;28;106152;-71
2022/01/04 06:36:17;;;;;;;6.35;3.47;;;;;;;6.26;80.10;98651.19;4984631;28;106562;-68
2022/01/04 06:38:42;;;;;;;6.18;3.60;;;;;;;6.26;80.04;98651.19;4985240;28;105802;-68
2022/01/04 06:41:07;;;;;;;7.47;3.70;;;;;;;6.25;80.21;98650.38;4984475;28;106776;-69
2022/01/04 06:43:32;;;;;;;6.63;3.70;;;;;;;6.28;80.24;98645.75;4982793;28;106739;-66
2022/01/04 06:45:58;;;;;;;7.18;3.85;;;;;;;6.28;79.89;98641.28;4983759;28;106055;-66
2022/01/04 06:48:23;;;;;;;8.60;4.28;;;;;;;6.27;80.01;98642.28;4984606;28;105949;-68
2022/01/04 06:50:48;;;;;;;9.13;4.07;;;;;;;6.27;80.19;98639.63;4984567;28;105819;-68
2022/01/04 06:53:14;;;;;;;7.60;4.32;;;;;;;6.29;80.23;98637.63;4982325;28;105865;-67
2022/01/04 06:55:39;;;;;;;7.65;4.50;;;;;;;6.31;80.44;98637.47;4984029;28;105957;-68
2022/01/04 06:58:05;;;;;;;9.70;4.65;;;;;;;6.32;80.32;98639.91;4974828;28;106575;-67
2022/01/04 07:00:31;;;;;;;7.25;4.30;;;;;;;6.34;80.19;98630.00;4969638;28;105910;-67
2022/01/04 07:02:56;;;;;;;9.35;4.57;;;;;;;6.32;79.83;98621.41;4970895;28;106099;-68
2022/01/04 07:05:21;;;;;;;9.85;4.45;;;;;;;6.35;79.78;98628.16;4970398;28;106047;-68
2022/01/04 07:07:47;;;;;;;8.88;4.68;;;;;;;6.35;79.93;98628.16;4967986;28;106173;-67
2022/01/04 07:10:12;;;;;;;14.43;5.60;;;;;;;6.36;80.04;98621.88;4950895;28;106292;-69
2022/01/04 07:12:38;;;;;;;9.45;5.07;;;;;;;6.36;80.31;98620.03;4951081;28;107397;-70
2022/01/04 07:15:03;;;;;;;11.07;5.20;;;;;;;6.39;80.25;98616.22;4950669;28;112153;-68
2022/01/04 07:17:29;;;;;;;8.95;5.22;;;;;;;6.40;80.12;98613.38;4951847;28;105842;-67
2022/01/04 07:19:54;;;;;;;8.35;5.32;;;;;;;6.42;80.05;98610.56;4951332;28;106871;-66
2022/01/04 07:22:19;;;;;;;8.77;5.03;;;;;;;6.44;80.04;98601.44;4950972;28;110742;-66
2022/01/04 07:24:45;;;;;;;9.43;4.88;;;;;;;6.44;80.01;98598.78;4950838;28;105926;-67
2022/01/04 07:27:10;;;;;;;7.30;5.32;;;;;;;6.44;79.93;98598.78;4951633;28;105885;-67
2022/01/04 07:29:35;;;;;;;11.77;5.38;;;;;;;6.44;80.41;98585.56;4951127;28;106143;-67
2022/01/04 07:32:01;;;;;;;9.95;4.95;;;;;;;6.43;80.20;98575.97;4950556;28;107192;-68
2022/01/04 07:34:26;;;;;;;10.25;4.95;;;;;;;6.46;80.09;98590.66;4950779;28;105861;-67
2022/01/04 07:36:52;;;;;;;8.07;4.78;;;;;;;6.48;80.19;98577.25;4951451;28;105880;-67
2022/01/04 07:39:17;;;;;;;8.80;4.90;;;;;;;6.48;80.42;98577.25;4950973;28;105975;-68
2022/01/04 07:41:42;;;;;;;11.65;5.43;;;;;;;6.49;80.21;98573.59;4950517;28;105961;-68
2022/01/04 07:44:08;;;;;;;9.32;5.22;;;;;;;6.50;80.61;98564.66;4948681;28;106383;-67
2022/01/04 07:46:33;;;;;;;10.00;5.80;;;;;;;6.53;80.69;98556.34;4950694;28;106251;-67
2022/01/04 07:48:58;;;;;;;10.30;6.40;;;;;;;6.54;80.69;98545.59;4950288;28;106234;-67
2022/01/04 07:51:24;;;;;;;11.80;6.57;;;;;;;6.56;80.32;98526.88;4950187;28;105938;-68
2022/01/04 07:53:49;;;;;;;12.70;6.55;;;;;;;6.58;80.37;98525.69;4949067;28;105915;-67
2022/01/04 07:56:14;;;;;;;10.85;5.97;;;;;;;6.59;80.32;98527.34;4951204;28;106380;-69
2022/01/04 07:58:40;;;;;;;10.27;7.00;;;;;;;6.59;80.42;98526.53;4949090;28;106305;-67
2022/01/04 08:01:05;;;;;;;18.15;9.00;;;;;;;6.61;80.15;98519.22;4950253;28;105837;-68
2022/01/04 08:03:31;;;;;;;21.27;10.63;;;;;;;6.62;80.30;98504.19;4949702;28;106225;-68
2022/01/04 08:05:56;;;;;;;21.30;11.65;;;;;;;6.64;80.75;98491.56;4950090;28;105982;-68
2022/01/04 08:08:22;;;;;;;17.80;8.40;;;;;;;6.67;80.43;98485.88;4949474;28;106181;-67
2022/01/04 08:10:48;;;;;;;13.80;6.82;;;;;;;6.69;80.91;98492.63;4949627;28;106062;-69
2022/01/04 08:13:14;;;;;;;21.00;9.63;;;;;;;6.71;80.84;98493.28;4949798;28;106285;-72
2022/01/04 08:15:39;;;;;;;11.73;6.40;;;;;;;6.75;80.66;98478.69;4971228;28;106113;-68
2022/01/04 08:18:05;;;;;;;14.15;7.60;;;;;;;6.75;80.93;98473.38;4968523;28;105953;-68
2022/01/04 08:20:31;;;;;;;12.02;5.65;;;;;;;6.80;80.48;98470.16;4968749;28;107176;-68
2022/01/04 08:22:57;;;;;;;14.23;6.22;;;;;;;6.83;80.81;98464.47;4968653;28;106053;-69
2022/01/04 08:25:22;;;;;;;12.73;7.07;;;;;;;6.84;80.75;98450.25;4969138;28;106019;-68
2022/01/04 08:27:48;;;;;;;11.00;6.38;;;;;;;6.86;80.60;98458.00;4969403;28;105816;-67
2022/01/04 08:30:14;;;;;;;11.50;6.20;;;;;;;6.84;80.44;98454.72;4968995;28;105898;-68
2022/01/04 08:32:40;;;;;;;8.88;5.65;;;;;;;6.83;81.13;98445.97;4968832;28;106421;-67
2022/01/04 08:35:07;;;;;;;9.57;5.45;;;;;;;6.85;81.02;98437.81;4969616;28;106416;-66
2022/01/04 08:37:32;;;;;;;9.07;4.85;;;;;;;6.88;81.19;98434.81;4969167;28;105980;-66
2022/01/04 08:39:57;;;;;;;9.95;4.85;;;;;;;6.90;80.77;98430.97;4968808;28;106064;-69
2022/01/04 08:42:22;;;;;;;9.27;4.80;;;;;;;6.91;80.93;98427.31;4968855;28;105872;-67
2022/01/04 08:44:49;;;;;;;8.05;4.65;;;;;;;6.95;80.52;98427.75;4969766;28;106338;-69
2022/01/04 08:47:14;;;;;;;7.53;4.32;;;;;;;6.97;80.93;98428.41;4969309;28;106221;-67
2022/01/04 08:49:40;;;;;;;9.57;4.40;;;;;;;6.99;81.00;98426.38;4969381;28;105935;-67
2022/01/04 08:52:07;;;;;;;7.50;4.53;;;;;;;7.01;80.88;98424.34;4969125;28;105988;-67
2022/01/04 08:54:33;;;;;;;8.10;4.82;;;;;;;7.03;80.67;98424.97;4970080;28;105713;-67
2022/01/04 08:56:59;;;;;;;11.45;4.50;;;;;;;7.05;80.63;98430.91;4969254;28;106339;-68
2022/01/04 08:59:26;;;;;;;12.27;4.70;;;;;;;7.10;80.87;98427.69;4968830;28;105833;-66
2022/01/04 09:01:51;;;;;;;8.88;4.82;;;;;;;7.12;81.20;98425.63;4968580;28;106220;-65
2022/01/04 09:04:17;;;;;;;5.97;4.38;;;;;;;7.16;80.72;98412.84;4969687;28;105903;-66
2022/01/04 09:06:42;;;;;;;10.63;4.80;;;;;;;7.18;80.79;98416.94;4969001;28;106183;-65
2022/01/04 09:09:08;;;;;;;8.57;4.38;;;;;;;7.23;81.18;98411.06;4968820;28;106726;-65
2022/01/04 09:11:33;;;;;;;10.52;4.32;;;;;;;7.25;81.06;98409.06;4968549;28;106387;-66
2022/01/04 09:19:22;;;;;;;9.50;5.78;;;;;;;7.29;80.81;98402.34;4966154;28;105814;-67
2022/01/04 09:21:47;;;;;;;9.90;5.82;;;;;;;7.33;81.07;98400.97;4968557;28;106024;-65
2022/01/04 09:24:13;;;;;;;11.35;5.82;;;;;;;7.34;80.85;98405.25;4969490;28;106375;-66
2022/01/04 09:26:38;;;;;;;13.52;6.50;;;;;;;7.35;81.30;98398.13;4969185;28;106150;-65
2022/01/04 09:29:04;;;;;;;10.43;6.15;;;;;;;7.33;80.70;98393.00;4968907;28;106014;-67
2022/01/04 09:31:30;;;;;;;9.30;5.65;;;;;;;7.35;80.52;98382.22;4968426;28;105947;-68
2022/01/04 09:33:58;;;;;;;9.48;5.32;;;;;;;7.37;80.58;98380.22;4969511;28;105823;-67
2022/01/04 09:36:24;;;;;;;9.45;5.18;;;;;;;7.41;81.14;98371.66;4968688;28;106222;-67
2022/01/04 09:38:49;;;;;;;9.23;4.93;;;;;;;7.43;81.06;98366.97;4968129;28;105969;-67
2022/01/04 09:41:15;;;;;;;8.32;4.75;;;;;;;7.49;80.84;98361.94;4967969;28;106028;-66
2022/01/04 09:43:40;;;;;;;7.68;4.72;;;;;;;7.52;80.91;98351.75;4969171;28;106436;-68
2022/01/04 09:46:05;;;;;;;8.70;4.60;;;;;;;7.56;80.71;98346.88;4967683;28;106270;-67
2022/01/04 09:48:31;;;;;;;6.57;4.07;;;;;;;7.59;81.11;98339.34;4968141;28;105992;-69
2022/01/04 09:50:57;;;;;;;8.88;3.78;;;;;;;7.62;80.27;98330.19;4967846;28;106344;-69
2022/01/04 09:53:24;;;;;;;6.07;3.40;;;;;;;7.64;80.56;98330.84;4968667;28;105850;-72
2022/01/04 09:55:51;;;;;;;9.38;3.50;;;;;;;7.65;80.69;98324.50;4967956;28;106073;-70
2022/01/04 09:58:18;;;;;;;7.60;3.47;;;;;;;7.66;80.76;98314.72;4967636;28;106057;-70
2022/01/04 10:00:44;;;;;;;7.72;3.58;;;;;;;7.70;80.56;98311.47;4966401;28;106010;-68
2022/01/04 10:03:16;;;;;;;6.75;3.25;;;;;;;7.70;80.30;98306.19;4968279;28;106002;-68
2022/01/04 10:05:43;;;;;;;6.78;3.42;;;;;;;7.70;80.74;98295.56;4967968;28;106493;-67
2022/01/04 10:08:10;;;;;;;6.72;3.55;;;;;;;7.72;80.66;98282.97;4967549;28;106320;-70
2022/01/04 10:10:37;;;;;;;5.82;3.08;;;;;;;7.75;80.77;98276.41;4967632;28;105838;-68
2022/01/04 10:13:09;;;;;;;5.25;2.90;;;;;;;7.78;80.81;98281.34;4968404;28;106101;-70
2022/01/04 10:15:37;;;;;;;5.75;3.00;;;;;;;7.79;80.55;98281.13;4967774;28;106004;-71
2022/01/04 10:18:23;;;;;;;7.28;3.65;;;;;;;7.81;80.58;98277.47;4967257;28;106955;-71
2022/01/04 10:20:53;;;;;;;6.95;3.63;;;;;;;7.82;81.05;98265.84;4967411;28;106059;-71
2022/01/04 10:23:22;;;;;;;6.35;3.40;;;;;;;7.84;80.72;98269.13;4968435;28;105976;-67
2022/01/04 10:25:49;;;;;;;7.03;3.60;;;;;;;7.82;80.80;98261.38;4967394;28;105945;-71
2022/01/04 10:28:39;;;;;;;5.70;3.80;;;;;;;7.83;80.33;98267.47;4967356;28;105998;-70
2022/01/04 10:31:16;;;;;;;7.17;3.73;;;;;;;7.82;80.52;98256.06;4967384;28;106158;-70
2022/01/04 10:33:41;;;;;;;6.28;3.60;;;;;;;7.80;80.26;98247.50;4962022;28;106001;-68
2022/01/04 10:36:12;;;;;;;6.60;3.60;;;;;;;7.80;80.35;98252.78;4952674;28;106156;-67
2022/01/04 10:38:42;;;;;;;;;;;;;;;7.78;80.28;98245.03;4950409;28;109334;-69
2022/01/04 10:41:11;;;;;;;7.13;3.67;;;;;;;7.77;80.58;98239.94;4951347;28;106012;-66
2022/01/04 10:43:37;;;;;;;6.20;3.58;;;;;;;7.78;80.50;98231.78;4952150;28;106039;-68
2022/01/04 10:46:03;;;;;;;6.97;4.05;;;;;;;7.82;80.33;98226.06;4950874;28;106193;-67
2022/01/04 10:48:39;;;;;;;6.95;3.72;;;;;;;7.85;80.17;98217.75;4951352;28;106994;-67
2022/01/04 10:51:07;;;;;;;8.35;4.55;;;;;;;7.89;80.09;98213.66;4950818;28;106087;-66
2022/01/04 10:53:40;;;;;;;11.05;5.20;;;;;;;7.94;80.56;98205.91;4951898;28;106082;-69
2022/01/04 10:56:16;;;;;;;8.55;5.30;;;;;;;7.97;80.35;98200.22;4951463;28;106341;-69
2022/01/04 10:58:48;;;;;;;9.30;5.07;;;;;;;7.97;79.80;98201.03;4950822;28;106315;-70
2022/01/04 11:01:19;;;;;;;7.20;4.30;;;;;;;8.00;80.24;98197.16;4950883;28;106095;-70
2022/01/04 11:03:51;;;;;;;13.73;5.90;;;;;;;8.02;80.21;98195.09;4951621;28;105817;-69
2022/01/04 11:06:22;;;;;;;12.18;6.18;;;;;;;8.03;80.52;98183.47;4950966;28;105738;-68
2022/01/04 11:08:47;;;;;;;10.32;7.05;;;;;;;8.06;80.05;98177.78;4950686;28;105979;-67
2022/01/04 11:11:13;;;;;;;10.18;6.82;;;;;;;8.09;79.91;98172.09;4950833;28;105865;-68
2022/01/04 11:13:39;;;;;;;12.88;6.70;;;;;;;8.14;79.89;98158.19;4949608;28;106192;-67
2022/01/04 11:16:06;;;;;;;11.30;6.50;;;;;;;8.13;79.88;98160.03;4950551;28;106289;-66
2022/01/04 11:18:33;;;;;;;14.50;7.43;;;;;;;8.10;79.49;98147.16;4948764;28;107609;-67
2022/01/04 11:21:00;;;;;;;11.93;6.88;;;;;;;8.09;79.43;98150.03;4950432;28;106239;-67
2022/01/04 11:23:28;;;;;;;11.43;6.22;;;;;;;8.10;79.16;98141.06;4950986;28;105892;-66
2022/01/04 11:25:54;;;;;;;7.93;5.38;;;;;;;8.14;80.17;98135.13;4950011;28;106297;-69
2022/01/04 11:28:20;;;;;;;10.60;6.20;;;;;;;8.26;80.13;98126.56;4949852;28;105931;-72
2022/01/04 11:30:46;;;;;;;10.40;6.13;;;;;;;8.35;80.00;98122.69;4950158;28;106692;-68
2022/01/04 11:33:46;;;;;;;10.05;6.20;;;;;;;8.36;79.53;98118.19;4949761;28;106138;-73
2022/01/04 11:36:12;;;;;;;;;;;;;;;8.32;79.73;98123.09;4948982;28;105982;-68
2022/01/04 11:38:38;;;;;;;13.50;5.90;;;;;;;8.28;78.93;98116.56;4960709;28;106083;-68
2022/01/04 11:41:04;;;;;;;9.18;5.05;;;;;;;8.29;79.61;98104.94;4954598;28;106429;-70
2022/01/04 11:43:39;;;;;;;11.60;5.97;;;;;;;8.39;79.35;98093.88;4950468;28;106000;-66
2022/01/04 11:46:06;;;;;;;12.27;6.50;;;;;;;8.45;79.16;98085.94;4949355;28;106097;-68
2022/01/04 11:48:43;;;;;;;12.55;6.40;;;;;;;8.51;79.70;98078.19;4949490;28;106255;-67
2022/01/04 11:51:24;;;;;;;13.82;6.70;;;;;;;8.55;79.03;98074.09;4949631;28;105940;-68
2022/01/04 11:54:14;;;;;;;10.52;5.53;;;;;;;8.52;78.92;98067.34;4950848;28;105931;-68
2022/01/04 11:56:46;;;;;;;9.50;5.30;;;;;;;8.50;78.86;98060.63;4950001;28;106176;-66
2022/01/04 11:59:25;;;;;;;12.43;6.10;;;;;;;8.50;79.21;98050.00;4948789;28;106092;-68
2022/01/04 12:01:53;;;;;;;11.13;5.75;;;;;;;8.52;79.08;98048.78;4949306;28;106147;-67
2022/01/04 12:04:49;;;;;;;10.25;5.47;;;;;;;8.52;79.05;98037.38;4950578;28;106351;-69
2022/01/04 12:07:44;;;;;;;11.15;5.70;;;;;;;8.54;79.01;98022.84;4948356;28;106206;-70
2022/01/04 12:10:21;;;;;;;10.32;5.57;;;;;;;8.51;78.86;98015.31;4949824;28;105894;-67
2022/01/04 12:12:57;;;;;;;13.18;5.70;;;;;;;8.49;78.90;98019.19;4949711;28;106283;-67
2022/01/04 12:15:35;;;;;;;11.55;6.35;;;;;;;8.46;79.02;98017.75;4950468;28;105945;-68
2022/01/04 12:18:09;;;;;;;9.45;5.47;;;;;;;8.44;78.99;98007.34;4949661;28;106154;-67
2022/01/04 12:20:48;;;;;;;12.52;5.82;;;;;;;8.46;78.84;97997.38;4949663;28;105965;-66
2022/01/04 12:23:26;;;;;;;9.70;6.05;;;;;;;8.48;78.97;97983.09;4949396;28;106229;-67
2022/01/04 12:26:06;;;;;;;14.05;6.47;;;;;;;8.48;78.90;97975.13;4957873;28;106145;-67
2022/01/04 12:28:38;;;;;;;11.77;6.47;;;;;;;8.48;78.95;97981.22;4959242;28;106874;-66
2022/01/04 12:31:12;;;;;;;11.82;6.28;;;;;;;8.49;78.79;97974.91;4957026;28;106009;-66
2022/01/04 12:33:38;;;;;;;12.55;7.47;;;;;;;8.52;78.88;97973.69;4965647;28;107433;-67
2022/01/04 12:36:04;;;;;;;12.93;7.93;;;;;;;8.51;78.95;97977.34;4967669;28;106121;-67
2022/01/04 12:38:30;;;;;;;10.20;6.43;;;;;;;8.54;79.31;97966.31;4969181;28;106235;-67
2022/01/04 12:40:55;;;;;;;13.35;6.88;;;;;;;8.53;78.98;97959.34;4969089;28;106351;-67
2022/01/04 12:43:22;;;;;;;10.68;5.40;;;;;;;8.54;79.38;97961.81;4968907;28;105844;-68
2022/01/04 12:46:03;;;;;;;11.98;6.07;;;;;;;8.51;79.33;97948.97;4968749;28;106019;-67
2022/01/04 12:48:48;;;;;;;13.82;6.10;;;;;;;8.50;79.31;97949.19;4959775;28;106184;-66
2022/01/04 12:51:28;;;;;;;10.13;5.18;;;;;;;8.50;78.97;97946.53;4940273;28;106897;-70
2022/01/04 12:53:57;;;;;;;9.77;5.60;;;;;;;8.51;79.14;97940.19;4953709;28;106422;-70
2022/01/04 12:56:22;;;;;;;11.25;5.07;;;;;;;8.50;79.13;97933.25;4949075;28;105944;-70
2022/01/04 12:58:48;;;;;;;10.55;5.38;;;;;;;8.49;79.48;97926.31;4949108;28;105755;-70
2022/01/04 13:01:13;;;;;;;10.00;4.80;;;;;;;8.50;79.61;97923.44;4948867;28;106338;-69
2022/01/04 13:03:39;;;;;;;7.90;4.28;;;;;;;8.50;79.49;97920.78;4948706;28;105850;-68
2022/01/04 13:06:05;;;;;;;11.23;5.38;;;;;;;8.52;79.29;97921.41;4966689;28;106398;-72
2022/01/04 13:08:32;;;;;;;9.95;5.20;;;;;;;8.53;79.11;97919.56;4969016;28;106198;-72
2022/01/04 13:11:05;;;;;;;9.45;5.40;;;;;;;8.55;79.30;97914.88;4967832;28;106460;-71
2022/01/04 13:13:30;;;;;;;11.43;5.43;;;;;;;8.56;79.39;97911.19;4967938;28;106982;-69
2022/01/04 13:16:29;;;;;;;9.13;5.55;;;;;;;8.55;79.62;97898.94;4968931;28;105822;-67
2022/01/04 13:19:08;;;;;;;9.55;5.13;;;;;;;8.53;79.42;97893.03;4968819;28;106604;-66
2022/01/04 13:21:34;;;;;;;11.57;5.25;;;;;;;8.52;79.59;97888.75;4968235;28;105893;-66
2022/01/04 13:23:59;;;;;;;11.02;5.57;;;;;;;8.52;79.41;97883.44;4967894;28;105958;-66
2022/01/04 13:26:25;;;;;;;10.00;5.70;;;;;;;8.53;79.41;97882.41;4968833;28;105965;-65
2022/01/04 13:28:55;;;;;;;10.50;5.88;;;;;;;8.55;79.66;97877.72;4968293;28;106321;-65
2022/01/04 13:31:21;;;;;;;10.57;6.00;;;;;;;8.57;79.98;97878.28;4967556;28;106864;-65
2022/01/04 13:33:46;;;;;;;11.73;6.00;;;;;;;8.60;79.59;97875.22;4967849;28;106241;-66
2022/01/04 13:36:12;;;;;;;10.90;6.18;;;;;;;8.58;79.91;97869.31;4968312;28;105933;-65
2022/01/04 13:38:37;;;;;;;9.02;5.32;;;;;;;8.57;79.70;97865.84;4967862;28;106126;-66
2022/01/04 13:41:05;;;;;;;10.30;5.85;;;;;;;8.56;79.78;97863.41;4967968;28;105895;-67
2022/01/04 13:43:35;;;;;;;9.10;5.32;;;;;;;8.54;79.78;97857.50;4967081;28;106065;-66
2022/01/04 13:46:06;;;;;;;10.20;4.90;;;;;;;8.54;79.69;97852.19;4967808;28;106484;-66
2022/01/04 13:48:37;;;;;;;8.93;5.30;;;;;;;8.52;80.16;97846.31;4967665;28;105942;-67
2022/01/04 13:51:07;;;;;;;8.75;5.28;;;;;;;8.50;79.85;97848.34;4967694;28;105989;-65
2022/01/04 13:53:37;;;;;;;10.27;5.00;;;;;;;8.47;79.66;97844.28;4967615;28;106122;-64
2022/01/04 13:56:14;;;;;;;12.00;5.63;;;;;;;8.44;79.64;97848.13;4968594;28;105920;-64
2022/01/04 13:58:45;;;;;;;9.38;5.75;;;;;;;8.46;80.47;97840.00;4968028;28;105873;-65
2022/01/04 14:01:34;;;;;;;11.98;6.25;;;;;;;8.48;80.31;97834.50;4967403;28;106043;-66
2022/01/04 14:04:08;;;;;;;13.85;6.57;;;;;;;8.48;80.34;97823.88;4965899;28;105787;-66
2022/01/04 14:06:42;;;;;;;11.82;6.22;;;;;;;8.50;80.10;97819.16;4968554;28;106259;-66
2022/01/04 14:09:27;;;;;;;10.98;6.18;;;;;;;8.49;80.34;97814.88;4971292;28;105925;-67
2022/01/04 14:12:13;;;;;;;10.60;6.05;;;;;;;8.48;80.60;97819.38;4967137;28;106141;-65
2022/01/04 14:14:46;;;;;;;12.65;5.85;;;;;;;8.48;80.16;97818.56;4955019;28;106024;-67
2022/01/04 14:17:12;;;;;;;10.15;5.22;;;;;;;8.47;80.43;97807.13;4951949;28;106053;-67
2022/01/04 14:19:55;;;;;;;11.02;4.85;;;;;;;8.48;80.35;97798.16;4951244;28;105982;-67
2022/01/04 14:22:23;;;;;;;10.27;5.05;;;;;;;8.49;80.69;97797.13;4953658;28;105886;-64
2022/01/04 14:25:00;;;;;;;9.70;5.20;;;;;;;8.50;80.65;97797.94;4951441;28;105971;-66
2022/01/04 14:27:31;;;;;;;8.50;4.75;;;;;;;8.50;80.61;97797.94;4953797;28;106108;-68
